sensor_id;sensor_type;location;lat;lon;timestamp;temperature;humidity
9393;DHT22;4736;52.508;13.422;2022-11-20T06:28:11;0.40;1.00
9393;DHT22;4736;52.508;13.422;2022-11-20T06:31:15;0.60;1.00
9393;DHT22;4736;52.508;13.422;2022-11-20T06:34:19;0.50;1.00
9393;DHT22;4736;52.508;13.422;2022-11-20T06:37:22;0.50;1.00
9393;DHT22;4736;52.508;13.422;2022-11-20T06:40:24;0.50;1.00
9393;DHT22;4736;52.508;13.422;2022-11-20T06:43:29;0.60;1.00
9393;DHT22;4736;52.508;13.422;2022-11-20T06:46:32;0.50;1.00
9393;DHT22;4736;52.508;13.422;2022-11-20T06:49:35;0.60;1.00
9393;DHT22;4736;52.508;13.422;2022-11-20T06:52:39;0.60;1.00
9393;DHT22;4736;52.508;13.422;2022-11-20T06:55:45;0.60;1.00
9393;DHT22;4736;52.508;13.422;2022-11-20T06:58:50;0.60;1.00
9393;DHT22;4736;52.508;13.422;2022-11-20T07:01:53;0.60;1.00
9393;DHT22;4736;52.508;13.422;2022-11-20T07:04:56;0.60;1.00
9393;DHT22;4736;52.508;13.422;2022-11-20T07:07:59;0.60;1.00
9393;DHT22;4736;52.508;13.422;2022-11-20T07:11:04;0.60;1.00
9393;DHT22;4736;52.508;13.422;2022-11-20T07:14:08;0.60;1.00
9393;DHT22;4736;52.508;13.422;2022-11-20T07:17:12;0.60;1.00
9393;DHT22;4736;52.508;13.422;2022-11-20T07:20:15;0.60;1.00
9393;DHT22;4736;52.508;13.422;2022-11-20T07:23:18;0.60;1.00
9393;DHT22;4736;52.508;13.422;2022-11-20T07:26:21;0.60;1.00
9393;DHT22;4736;52.508;13.422;2022-11-20T07:29:25;0.70;1.00
9393;DHT22;4736;52.508;13.422;2022-11-20T07:32:28;0.70;1.00
9393;DHT22;4736;52.508;13.422;2022-11-20T07:35:31;0.60;1.00
9393;DHT22;4736;52.508;13.422;2022-11-20T07:38:35;0.70;1.00
9393;DHT22;4736;52.508;13.422;2022-11-20T07:41:38;0.70;1.00
9393;DHT22;4736;52.508;13.422;2022-11-20T07:44:42;0.60;1.00
9393;DHT22;4736;52.508;13.422;2022-11-20T07:47:45;0.70;1.00
9393;DHT22;4736;52.508;13.422;2022-11-20T07:50:48;0.70;1.00
9393;DHT22;4736;52.508;13.422;2022-11-20T07:53:51;0.70;1.00
9393;DHT22;4736;52.508;13.422;2022-11-20T07:56:54;0.70;1.00
9393;DHT22;4736;52.508;13.422;2022-11-20T07:59:58;0.60;1.00
9393;DHT22;4736;52.508;13.422;2022-11-20T08:03:03;0.60;1.00
9393;DHT22;4736;52.508;13.422;2022-11-20T08:06:07;0.50;1.00
9393;DHT22;4736;52.508;13.422;2022-11-20T08:09:10;0.50;1.00
9393;DHT22;4736;52.508;13.422;2022-11-20T08:12:17;0.60;1.00
9393;DHT22;4736;52.508;13.422;2022-11-20T08:15:40;0.60;1.00
9393;DHT22;4736;52.508;13.422;2022-11-20T08:18:43;0.60;1.00
9393;DHT22;4736;52.508;13.422;2022-11-20T08:21:46;0.60;1.00
9393;DHT22;4736;52.508;13.422;2022-11-20T08:24:49;0.60;1.00
9393;DHT22;4736;52.508;13.422;2022-11-20T08:27:52;0.70;1.00
9393;DHT22;4736;52.508;13.422;2022-11-20T08:31:03;0.70;1.00
9393;DHT22;4736;52.508;13.422;2022-11-20T08:34:06;0.70;1.00
9393;DHT22;4736;52.508;13.422;2022-11-20T08:37:10;0.70;1.00
9393;DHT22;4736;52.508;13.422;2022-11-20T08:40:14;0.80;1.00
9393;DHT22;4736;52.508;13.422;2022-11-20T08:43:20;0.70;1.00
9393;DHT22;4736;52.508;13.422;2022-11-20T08:46:26;0.70;1.00
9393;DHT22;4736;52.508;13.422;2022-11-20T08:49:30;0.80;1.00
9393;DHT22;4736;52.508;13.422;2022-11-20T08:52:33;0.80;1.00
9393;DHT22;4736;52.508;13.422;2022-11-20T08:55:40;0.80;1.00
9393;DHT22;4736;52.508;13.422;2022-11-20T08:58:43;0.90;1.00
9393;DHT22;4736;52.508;13.422;2022-11-20T09:02:07;0.90;1.00
9393;DHT22;4736;52.508;13.422;2022-11-20T09:05:10;0.90;1.00
9393;DHT22;4736;52.508;13.422;2022-11-20T09:08:13;1.00;1.00
9393;DHT22;4736;52.508;13.422;2022-11-20T09:11:16;1.10;1.00
9393;DHT22;4736;52.508;13.422;2022-11-20T09:14:19;1.00;1.00
9393;DHT22;4736;52.508;13.422;2022-11-20T09:17:24;1.10;1.00
9393;DHT22;4736;52.508;13.422;2022-11-20T09:20:28;1.10;1.00
9393;DHT22;4736;52.508;13.422;2022-11-20T09:23:33;1.00;1.00
9393;DHT22;4736;52.508;13.422;2022-11-20T09:26:36;0.90;1.00
9393;DHT22;4736;52.508;13.422;2022-11-20T09:29:39;0.90;1.00
9393;DHT22;4736;52.508;13.422;2022-11-20T09:32:43;1.90;1.00
9393;DHT22;4736;52.508;13.422;2022-11-20T09:35:46;1.60;1.00
9393;DHT22;4736;52.508;13.422;2022-11-20T09:38:49;1.40;1.00
9393;DHT22;4736;52.508;13.422;2022-11-20T09:45:48;1.30;1.00
9393;DHT22;4736;52.508;13.422;2022-11-20T09:49:04;1.30;1.00
9393;DHT22;4736;52.508;13.422;2022-11-20T09:52:25;1.20;1.00
9393;DHT22;4736;52.508;13.422;2022-11-20T09:55:31;1.10;1.00
9393;DHT22;4736;52.508;13.422;2022-11-20T09:58:38;1.20;1.00
9393;DHT22;4736;52.508;13.422;2022-11-20T10:01:43;1.20;1.00
9393;DHT22;4736;52.508;13.422;2022-11-20T10:04:52;1.20;1.00
9393;DHT22;4736;52.508;13.422;2022-11-20T10:08:07;1.30;1.00
9393;DHT22;4736;52.508;13.422;2022-11-20T10:11:20;1.30;1.00
9393;DHT22;4736;52.508;13.422;2022-11-20T10:14:32;1.30;1.00
9393;DHT22;4736;52.508;13.422;2022-11-20T10:17:57;1.10;1.00
9393;DHT22;4736;52.508;13.422;2022-11-20T10:21:10;0.40;1.00
9393;DHT22;4736;52.508;13.422;2022-11-20T10:24:37;1.00;1.00
9393;DHT22;4736;52.508;13.422;2022-11-20T10:27:56;1.00;1.00
9393;DHT22;4736;52.508;13.422;2022-11-20T10:31:03;1.00;1.00
9393;DHT22;4736;52.508;13.422;2022-11-20T10:34:16;1.00;1.00
9393;DHT22;4736;52.508;13.422;2022-11-20T10:37:26;1.10;1.00
9393;DHT22;4736;52.508;13.422;2022-11-20T10:40:34;1.10;1.00
9393;DHT22;4736;52.508;13.422;2022-11-20T10:43:38;1.10;1.00
9393;DHT22;4736;52.508;13.422;2022-11-20T10:46:44;1.30;1.00
9393;DHT22;4736;52.508;13.422;2022-11-20T10:49:51;1.30;1.00
9393;DHT22;4736;52.508;13.422;2022-11-20T10:53:04;1.30;1.00
9393;DHT22;4736;52.508;13.422;2022-11-20T10:56:15;1.40;1.00
9393;DHT22;4736;52.508;13.422;2022-11-20T10:59:33;1.40;1.00
9393;DHT22;4736;52.508;13.422;2022-11-20T11:02:41;1.40;1.00
9393;DHT22;4736;52.508;13.422;2022-11-20T11:05:50;1.50;1.00
9393;DHT22;4736;52.508;13.422;2022-11-20T11:08:59;1.50;1.00
9393;DHT22;4736;52.508;13.422;2022-11-20T11:12:07;1.60;1.00
9393;DHT22;4736;52.508;13.422;2022-11-20T11:15:14;1.60;1.00
9393;DHT22;4736;52.508;13.422;2022-11-20T11:18:25;1.60;1.00
9393;DHT22;4736;52.508;13.422;2022-11-20T11:21:28;1.70;1.00
9393;DHT22;4736;52.508;13.422;2022-11-20T11:24:33;1.70;1.00
9393;DHT22;4736;52.508;13.422;2022-11-20T11:27:46;1.80;1.00
9393;DHT22;4736;52.508;13.422;2022-11-20T11:30:49;1.90;1.00
9393;DHT22;4736;52.508;13.422;2022-11-20T11:33:52;1.90;1.00
9393;DHT22;4736;52.508;13.422;2022-11-20T11:36:57;2.00;1.00
9393;DHT22;4736;52.508;13.422;2022-11-20T11:40:04;2.00;1.00
9393;DHT22;4736;52.508;13.422;2022-11-20T11:43:29;1.90;1.00
9393;DHT22;4736;52.508;13.422;2022-11-20T11:46:53;1.90;1.00
9393;DHT22;4736;52.508;13.422;2022-11-20T11:50:02;1.90;1.00
9393;DHT22;4736;52.508;13.422;2022-11-20T11:53:09;1.80;1.00
9393;DHT22;4736;52.508;13.422;2022-11-20T11:56:16;1.80;1.00
9393;DHT22;4736;52.508;13.422;2022-11-20T11:59:25;1.80;1.00
9393;DHT22;4736;52.508;13.422;2022-11-20T12:02:35;1.70;1.00
9393;DHT22;4736;52.508;13.422;2022-11-20T12:05:43;1.60;1.00
9393;DHT22;4736;52.508;13.422;2022-11-20T12:08:50;1.60;1.00
9393;DHT22;4736;52.508;13.422;2022-11-20T12:12:04;1.70;1.00
9393;DHT22;4736;52.508;13.422;2022-11-20T12:15:10;1.70;1.00
9393;DHT22;4736;52.508;13.422;2022-11-20T12:18:15;1.60;1.00
9393;DHT22;4736;52.508;13.422;2022-11-20T12:21:28;1.60;1.00
9393;DHT22;4736;52.508;13.422;2022-11-20T12:24:50;1.60;1.00
9393;DHT22;4736;52.508;13.422;2022-11-20T12:28:13;1.80;1.00
9393;DHT22;4736;52.508;13.422;2022-11-20T12:31:37;1.80;1.00
9393;DHT22;4736;52.508;13.422;2022-11-20T12:34:53;1.90;1.00
9393;DHT22;4736;52.508;13.422;2022-11-20T12:38:11;2.00;1.00
9393;DHT22;4736;52.508;13.422;2022-11-20T12:41:22;1.90;1.00
9393;DHT22;4736;52.508;13.422;2022-11-20T12:45:01;2.10;1.00
9393;DHT22;4736;52.508;13.422;2022-11-20T12:48:38;2.20;1.00
9393;DHT22;4736;52.508;13.422;2022-11-20T12:52:04;2.00;1.00
9393;DHT22;4736;52.508;13.422;2022-11-20T12:55:28;1.90;1.00
9393;DHT22;4736;52.508;13.422;2022-11-20T12:58:39;1.90;1.00
9393;DHT22;4736;52.508;13.422;2022-11-20T13:01:51;1.80;1.00
9393;DHT22;4736;52.508;13.422;2022-11-20T13:05:17;1.80;1.00
9393;DHT22;4736;52.508;13.422;2022-11-20T13:08:23;1.80;1.00
9393;DHT22;4736;52.508;13.422;2022-11-20T13:11:33;1.80;1.00
9393;DHT22;4736;52.508;13.422;2022-11-20T13:14:44;1.70;1.00
9393;DHT22;4736;52.508;13.422;2022-11-20T13:17:53;1.70;1.00
9393;DHT22;4736;52.508;13.422;2022-11-20T13:20:57;1.80;1.00
9393;DHT22;4736;52.508;13.422;2022-11-20T13:24:04;1.90;1.00
9393;DHT22;4736;52.508;13.422;2022-11-20T13:27:22;2.00;1.00
9393;DHT22;4736;52.508;13.422;2022-11-20T13:30:26;2.00;1.00
9393;DHT22;4736;52.508;13.422;2022-11-20T13:33:32;1.90;1.00
9393;DHT22;4736;52.508;13.422;2022-11-20T13:36:36;1.90;1.00
9393;DHT22;4736;52.508;13.422;2022-11-20T13:39:39;1.80;1.00
9393;DHT22;4736;52.508;13.422;2022-11-20T13:42:44;1.80;1.00
9393;DHT22;4736;52.508;13.422;2022-11-20T13:45:56;1.90;1.00
9393;DHT22;4736;52.508;13.422;2022-11-20T13:49:07;1.90;1.00
9393;DHT22;4736;52.508;13.422;2022-11-20T13:52:33;1.90;1.00
9393;DHT22;4736;52.508;13.422;2022-11-20T13:55:44;1.90;1.00
9393;DHT22;4736;52.508;13.422;2022-11-20T13:58:58;1.90;1.00
9393;DHT22;4736;52.508;13.422;2022-11-20T14:02:11;1.90;1.00
9393;DHT22;4736;52.508;13.422;2022-11-20T14:05:19;1.90;1.00
9393;DHT22;4736;52.508;13.422;2022-11-20T14:08:27;1.80;1.00
9393;DHT22;4736;52.508;13.422;2022-11-20T14:11:31;1.70;1.00
9393;DHT22;4736;52.508;13.422;2022-11-20T14:14:35;1.70;1.00
9393;DHT22;4736;52.508;13.422;2022-11-20T14:17:38;1.80;1.00
9393;DHT22;4736;52.508;13.422;2022-11-20T14:20:43;1.70;1.00
9393;DHT22;4736;52.508;13.422;2022-11-20T14:23:46;2.00;1.00
9393;DHT22;4736;52.508;13.422;2022-11-20T14:26:50;1.70;1.00
9393;DHT22;4736;52.508;13.422;2022-11-20T14:29:53;1.70;1.00
9393;DHT22;4736;52.508;13.422;2022-11-20T14:33:01;1.60;1.00
9393;DHT22;4736;52.508;13.422;2022-11-20T14:36:15;1.80;1.00
9393;DHT22;4736;52.508;13.422;2022-11-20T14:39:20;1.70;1.00
9393;DHT22;4736;52.508;13.422;2022-11-20T14:42:25;1.80;1.00
9393;DHT22;4736;52.508;13.422;2022-11-20T14:45:28;1.80;1.00
9393;DHT22;4736;52.508;13.422;2022-11-20T14:48:33;1.70;1.00
9393;DHT22;4736;52.508;13.422;2022-11-20T14:51:40;1.70;1.00
9393;DHT22;4736;52.508;13.422;2022-11-20T14:54:45;1.60;1.00
9393;DHT22;4736;52.508;13.422;2022-11-20T14:57:54;1.50;1.00
9393;DHT22;4736;52.508;13.422;2022-11-20T15:01:00;1.50;1.00
9393;DHT22;4736;52.508;13.422;2022-11-20T15:04:06;1.40;1.00
9393;DHT22;4736;52.508;13.422;2022-11-20T15:07:23;1.60;1.00
9393;DHT22;4736;52.508;13.422;2022-11-20T15:10:27;1.40;1.00
9393;DHT22;4736;52.508;13.422;2022-11-20T15:13:32;1.30;1.00
9393;DHT22;4736;52.508;13.422;2022-11-20T15:16:35;1.30;1.00
9393;DHT22;4736;52.508;13.422;2022-11-20T15:19:39;1.30;1.00
9393;DHT22;4736;52.508;13.422;2022-11-20T15:22:43;1.30;1.00
9393;DHT22;4736;52.508;13.422;2022-11-20T15:25:47;1.30;1.00
9393;DHT22;4736;52.508;13.422;2022-11-20T15:28:50;1.30;1.00
9393;DHT22;4736;52.508;13.422;2022-11-20T15:31:53;1.30;1.00
9393;DHT22;4736;52.508;13.422;2022-11-20T15:34:57;1.40;1.00
9393;DHT22;4736;52.508;13.422;2022-11-20T15:38:02;1.40;1.00
9393;DHT22;4736;52.508;13.422;2022-11-20T15:41:05;1.30;1.00
9393;DHT22;4736;52.508;13.422;2022-11-20T15:44:08;1.30;1.00
9393;DHT22;4736;52.508;13.422;2022-11-20T15:47:11;1.30;1.00
9393;DHT22;4736;52.508;13.422;2022-11-20T15:50:17;1.40;1.00
9393;DHT22;4736;52.508;13.422;2022-11-20T15:53:21;1.40;1.00
9393;DHT22;4736;52.508;13.422;2022-11-20T15:56:24;1.40;1.00
9393;DHT22;4736;52.508;13.422;2022-11-20T15:59:27;1.40;1.00
9393;DHT22;4736;52.508;13.422;2022-11-20T16:02:30;1.40;1.00
9393;DHT22;4736;52.508;13.422;2022-11-20T16:05:33;1.40;1.00
9393;DHT22;4736;52.508;13.422;2022-11-20T16:08:38;1.30;1.00
9393;DHT22;4736;52.508;13.422;2022-11-20T16:11:41;1.30;1.00
9393;DHT22;4736;52.508;13.422;2022-11-20T16:14:44;1.20;1.00
9393;DHT22;4736;52.508;13.422;2022-11-20T16:18:04;1.10;1.00
9393;DHT22;4736;52.508;13.422;2022-11-20T16:21:11;1.00;1.00
9393;DHT22;4736;52.508;13.422;2022-11-20T16:24:16;1.10;1.00
9393;DHT22;4736;52.508;13.422;2022-11-20T16:27:19;0.90;1.00
9393;DHT22;4736;52.508;13.422;2022-11-20T16:30:22;1.10;1.00
9393;DHT22;4736;52.508;13.422;2022-11-20T16:33:25;0.90;1.00
9393;DHT22;4736;52.508;13.422;2022-11-20T16:36:28;1.00;1.00
9393;DHT22;4736;52.508;13.422;2022-11-20T16:39:32;0.80;1.00
9393;DHT22;4736;52.508;13.422;2022-11-20T16:42:36;0.80;1.00
9393;DHT22;4736;52.508;13.422;2022-11-20T16:45:43;0.80;1.00
9393;DHT22;4736;52.508;13.422;2022-11-20T16:48:52;0.80;1.00
9393;DHT22;4736;52.508;13.422;2022-11-20T16:51:55;1.00;1.00
9393;DHT22;4736;52.508;13.422;2022-11-20T16:54:59;0.60;1.00
9393;DHT22;4736;52.508;13.422;2022-11-20T16:58:02;0.70;1.00
9393;DHT22;4736;52.508;13.422;2022-11-20T17:01:06;1.00;1.00
9393;DHT22;4736;52.508;13.422;2022-11-20T17:04:11;0.70;1.00
9393;DHT22;4736;52.508;13.422;2022-11-20T17:07:14;0.80;1.00
9393;DHT22;4736;52.508;13.422;2022-11-20T17:10:18;0.80;1.00
9393;DHT22;4736;52.508;13.422;2022-11-20T17:13:21;0.80;1.00
9393;DHT22;4736;52.508;13.422;2022-11-20T17:16:24;0.80;1.00
9393;DHT22;4736;52.508;13.422;2022-11-20T17:19:27;0.70;1.00
9393;DHT22;4736;52.508;13.422;2022-11-20T17:22:30;0.60;1.00
9393;DHT22;4736;52.508;13.422;2022-11-20T17:25:35;0.90;1.00
9393;DHT22;4736;52.508;13.422;2022-11-20T17:28:39;0.80;1.00
9393;DHT22;4736;52.508;13.422;2022-11-20T17:31:42;1.00;1.00
9393;DHT22;4736;52.508;13.422;2022-11-20T17:34:46;0.80;1.00
9393;DHT22;4736;52.508;13.422;2022-11-20T17:37:48;0.80;1.00
9393;DHT22;4736;52.508;13.422;2022-11-20T17:40:53;0.90;1.00
9393;DHT22;4736;52.508;13.422;2022-11-20T17:44:03;1.00;1.00
9393;DHT22;4736;52.508;13.422;2022-11-20T17:47:06;0.90;1.00
9393;DHT22;4736;52.508;13.422;2022-11-20T17:50:09;0.90;1.00
9393;DHT22;4736;52.508;13.422;2022-11-20T17:53:12;1.00;1.00
9393;DHT22;4736;52.508;13.422;2022-11-20T17:56:17;1.00;1.00
9393;DHT22;4736;52.508;13.422;2022-11-20T17:59:37;0.90;1.00
9393;DHT22;4736;52.508;13.422;2022-11-20T18:02:40;1.10;1.00
9393;DHT22;4736;52.508;13.422;2022-11-20T18:05:43;1.20;1.00
9393;DHT22;4736;52.508;13.422;2022-11-20T18:08:47;1.00;1.00
9393;DHT22;4736;52.508;13.422;2022-11-20T18:11:51;1.00;1.00
9393;DHT22;4736;52.508;13.422;2022-11-20T18:14:55;0.90;1.00
9393;DHT22;4736;52.508;13.422;2022-11-20T18:17:57;0.90;1.00
9393;DHT22;4736;52.508;13.422;2022-11-20T18:21:00;0.90;1.00
9393;DHT22;4736;52.508;13.422;2022-11-20T18:24:04;1.00;1.00
9393;DHT22;4736;52.508;13.422;2022-11-20T18:27:14;1.00;1.00
9393;DHT22;4736;52.508;13.422;2022-11-20T18:30:18;0.80;1.00
9393;DHT22;4736;52.508;13.422;2022-11-20T18:33:21;1.10;1.00
9393;DHT22;4736;52.508;13.422;2022-11-20T18:36:30;0.80;1.00
9393;DHT22;4736;52.508;13.422;2022-11-20T18:39:33;0.80;1.00
9393;DHT22;4736;52.508;13.422;2022-11-20T18:42:37;1.00;1.00
9393;DHT22;4736;52.508;13.422;2022-11-20T18:46:01;0.70;1.00
9393;DHT22;4736;52.508;13.422;2022-11-20T18:49:04;0.90;1.00
9393;DHT22;4736;52.508;13.422;2022-11-20T18:52:07;0.70;1.00
9393;DHT22;4736;52.508;13.422;2022-11-20T18:55:10;0.60;1.00
9393;DHT22;4736;52.508;13.422;2022-11-20T18:58:15;0.70;1.00
9393;DHT22;4736;52.508;13.422;2022-11-20T19:01:17;0.50;1.00
9393;DHT22;4736;52.508;13.422;2022-11-20T19:04:20;0.40;1.00
9393;DHT22;4736;52.508;13.422;2022-11-20T19:07:24;0.30;1.00
9393;DHT22;4736;52.508;13.422;2022-11-20T19:10:28;0.60;1.00
9393;DHT22;4736;52.508;13.422;2022-11-20T19:13:33;0.30;1.00
9393;DHT22;4736;52.508;13.422;2022-11-20T19:16:36;0.60;1.00
9393;DHT22;4736;52.508;13.422;2022-11-20T19:19:39;0.30;1.00
9393;DHT22;4736;52.508;13.422;2022-11-20T19:22:42;0.30;1.00
9393;DHT22;4736;52.508;13.422;2022-11-20T19:25:45;0.30;1.00
9393;DHT22;4736;52.508;13.422;2022-11-20T19:28:50;0.30;1.00
9393;DHT22;4736;52.508;13.422;2022-11-20T19:31:53;0.20;1.00
9393;DHT22;4736;52.508;13.422;2022-11-20T19:34:56;0.30;1.00
9393;DHT22;4736;52.508;13.422;2022-11-20T19:37:59;0.30;1.00
9393;DHT22;4736;52.508;13.422;2022-11-20T19:41:07;0.20;1.00
9393;DHT22;4736;52.508;13.422;2022-11-20T19:44:12;0.40;1.00
9393;DHT22;4736;52.508;13.422;2022-11-20T19:47:16;0.30;1.00
9393;DHT22;4736;52.508;13.422;2022-11-20T19:50:18;0.40;1.00
9393;DHT22;4736;52.508;13.422;2022-11-20T19:53:21;0.10;1.00
9393;DHT22;4736;52.508;13.422;2022-11-20T19:56:25;0.30;1.00
9393;DHT22;4736;52.508;13.422;2022-11-20T19:59:30;0.30;1.00
9393;DHT22;4736;52.508;13.422;2022-11-20T20:02:33;0.30;1.00
9393;DHT22;4736;52.508;13.422;2022-11-20T20:05:36;0.40;1.00
9393;DHT22;4736;52.508;13.422;2022-11-20T20:08:39;0.30;1.00
9393;DHT22;4736;52.508;13.422;2022-11-20T20:11:44;0.30;1.00
9393;DHT22;4736;52.508;13.422;2022-11-20T20:14:49;0.30;1.00
9393;DHT22;4736;52.508;13.422;2022-11-20T20:17:53;0.30;1.00
9393;DHT22;4736;52.508;13.422;2022-11-20T20:21:01;0.40;1.00
9393;DHT22;4736;52.508;13.422;2022-11-20T20:24:05;0.30;1.00
9393;DHT22;4736;52.508;13.422;2022-11-20T20:27:08;0.30;1.00
9393;DHT22;4736;52.508;13.422;2022-11-20T20:30:13;0.30;1.00
9393;DHT22;4736;52.508;13.422;2022-11-20T20:33:16;0.30;1.00
9393;DHT22;4736;52.508;13.422;2022-11-20T20:36:20;0.50;1.00
9393;DHT22;4736;52.508;13.422;2022-11-20T20:39:23;0.40;1.00
9393;DHT22;4736;52.508;13.422;2022-11-20T20:42:28;0.50;1.00
9393;DHT22;4736;52.508;13.422;2022-11-20T20:45:32;0.50;1.00
9393;DHT22;4736;52.508;13.422;2022-11-20T20:48:36;0.40;1.00
9393;DHT22;4736;52.508;13.422;2022-11-20T20:51:39;0.60;1.00
9393;DHT22;4736;52.508;13.422;2022-11-20T20:54:42;0.30;1.00
9393;DHT22;4736;52.508;13.422;2022-11-20T20:57:45;0.40;1.00
9393;DHT22;4736;52.508;13.422;2022-11-20T21:00:49;0.30;1.00
9393;DHT22;4736;52.508;13.422;2022-11-20T21:03:52;0.20;1.00
9393;DHT22;4736;52.508;13.422;2022-11-20T21:06:55;0.20;1.00
9393;DHT22;4736;52.508;13.422;2022-11-20T21:09:58;0.10;1.00
9393;DHT22;4736;52.508;13.422;2022-11-20T21:13:01;0.00;1.00
9393;DHT22;4736;52.508;13.422;2022-11-20T21:16:06;0.00;1.00
9393;DHT22;4736;52.508;13.422;2022-11-20T21:19:09;-0.30;1.00
9393;DHT22;4736;52.508;13.422;2022-11-20T21:22:12;0.00;1.00
9393;DHT22;4736;52.508;13.422;2022-11-20T21:25:14;-0.20;1.00
9393;DHT22;4736;52.508;13.422;2022-11-20T21:28:17;-0.10;1.00
9393;DHT22;4736;52.508;13.422;2022-11-20T21:31:22;-0.10;1.00
9393;DHT22;4736;52.508;13.422;2022-11-20T21:34:27;-0.10;1.00
9393;DHT22;4736;52.508;13.422;2022-11-20T21:37:30;-0.40;1.00
9393;DHT22;4736;52.508;13.422;2022-11-20T21:40:37;-0.20;1.00
9393;DHT22;4736;52.508;13.422;2022-11-20T21:43:40;-0.10;1.00
9393;DHT22;4736;52.508;13.422;2022-11-20T21:46:46;-0.10;1.00
9393;DHT22;4736;52.508;13.422;2022-11-20T21:49:49;-0.10;1.00
9393;DHT22;4736;52.508;13.422;2022-11-20T21:52:52;-0.10;1.00
9393;DHT22;4736;52.508;13.422;2022-11-20T21:55:55;-0.20;1.00
9393;DHT22;4736;52.508;13.422;2022-11-20T21:58:58;-0.30;1.00
9393;DHT22;4736;52.508;13.422;2022-11-20T22:02:02;-0.30;1.00
9393;DHT22;4736;52.508;13.422;2022-11-20T22:05:06;-0.30;1.00
9393;DHT22;4736;52.508;13.422;2022-11-20T22:08:09;-0.60;1.00
9393;DHT22;4736;52.508;13.422;2022-11-20T22:11:14;-0.40;1.00
9393;DHT22;4736;52.508;13.422;2022-11-20T22:14:17;-0.60;1.00
9393;DHT22;4736;52.508;13.422;2022-11-20T22:17:25;-0.50;1.00
9393;DHT22;4736;52.508;13.422;2022-11-20T22:20:42;-0.70;1.00
9393;DHT22;4736;52.508;13.422;2022-11-20T22:23:45;-0.70;1.00
9393;DHT22;4736;52.508;13.422;2022-11-20T22:26:48;-0.90;1.00
9393;DHT22;4736;52.508;13.422;2022-11-20T22:29:52;-0.80;1.00
9393;DHT22;4736;52.508;13.422;2022-11-20T22:32:56;-0.60;1.00
9393;DHT22;4736;52.508;13.422;2022-11-20T22:36:00;-0.80;1.00
9393;DHT22;4736;52.508;13.422;2022-11-20T22:39:03;-1.00;1.00
9393;DHT22;4736;52.508;13.422;2022-11-20T22:42:06;-0.80;1.00
9393;DHT22;4736;52.508;13.422;2022-11-20T22:45:10;-1.00;1.00
9393;DHT22;4736;52.508;13.422;2022-11-20T22:48:15;-0.90;1.00
9393;DHT22;4736;52.508;13.422;2022-11-20T22:51:20;-1.10;1.00
9393;DHT22;4736;52.508;13.422;2022-11-20T22:54:23;-0.90;1.00
9393;DHT22;4736;52.508;13.422;2022-11-20T22:57:26;-1.10;1.00
9393;DHT22;4736;52.508;13.422;2022-11-20T23:00:29;-1.00;1.00
9393;DHT22;4736;52.508;13.422;2022-11-20T23:03:33;-1.00;1.00
9393;DHT22;4736;52.508;13.422;2022-11-20T23:06:37;-1.20;1.00
9393;DHT22;4736;52.508;13.422;2022-11-20T23:09:40;-1.10;1.00
9393;DHT22;4736;52.508;13.422;2022-11-20T23:12:43;-1.20;1.00
9393;DHT22;4736;52.508;13.422;2022-11-20T23:15:46;-1.10;1.00
9393;DHT22;4736;52.508;13.422;2022-11-20T23:18:54;-0.90;1.00
9393;DHT22;4736;52.508;13.422;2022-11-20T23:21:57;-1.00;1.00
9393;DHT22;4736;52.508;13.422;2022-11-20T23:25:00;-1.10;1.00
9393;DHT22;4736;52.508;13.422;2022-11-20T23:28:03;-0.80;1.00
9393;DHT22;4736;52.508;13.422;2022-11-20T23:31:06;-0.90;1.00
9393;DHT22;4736;52.508;13.422;2022-11-20T23:34:11;-0.90;1.00
9393;DHT22;4736;52.508;13.422;2022-11-20T23:37:14;-0.90;1.00
9393;DHT22;4736;52.508;13.422;2022-11-20T23:40:17;-1.00;1.00
9393;DHT22;4736;52.508;13.422;2022-11-20T23:43:20;-1.00;1.00
9393;DHT22;4736;52.508;13.422;2022-11-20T23:46:24;-1.00;1.00
9393;DHT22;4736;52.508;13.422;2022-11-20T23:49:28;-0.90;1.00
9393;DHT22;4736;52.508;13.422;2022-11-20T23:52:31;-0.90;1.00
9393;DHT22;4736;52.508;13.422;2022-11-20T23:55:34;-0.90;1.00
9393;DHT22;4736;52.508;13.422;2022-11-20T23:58:37;-0.80;1.00
